sensor_id;sensor_type;location;lat;lon;timestamp;temperature;humidity
15364;DHT22;7781;49.690;6.472;2022-08-19T00:01:59;17.40;99.90
15364;DHT22;7781;49.690;6.472;2022-08-19T00:04:29;17.40;99.90
15364;DHT22;7781;49.690;6.472;2022-08-19T00:06:59;17.50;99.90
15364;DHT22;7781;49.690;6.472;2022-08-19T00:09:27;17.40;99.90
15364;DHT22;7781;49.690;6.472;2022-08-19T00:11:57;17.40;99.90
15364;DHT22;7781;49.690;6.472;2022-08-19T00:14:26;17.40;99.90
15364;DHT22;7781;49.690;6.472;2022-08-19T00:16:55;17.30;99.90
15364;DHT22;7781;49.690;6.472;2022-08-19T00:19:24;17.40;99.90
15364;DHT22;7781;49.690;6.472;2022-08-19T00:21:52;17.40;99.90
15364;DHT22;7781;49.690;6.472;2022-08-19T00:24:21;17.30;99.90
15364;DHT22;7781;49.690;6.472;2022-08-19T00:26:49;17.30;99.90
15364;DHT22;7781;49.690;6.472;2022-08-19T00:29:22;17.30;99.90
15364;DHT22;7781;49.690;6.472;2022-08-19T00:31:52;17.20;99.90
15364;DHT22;7781;49.690;6.472;2022-08-19T00:34:24;17.20;99.90
15364;DHT22;7781;49.690;6.472;2022-08-19T00:36:55;17.20;99.90
15364;DHT22;7781;49.690;6.472;2022-08-19T00:39:23;17.20;99.90
15364;DHT22;7781;49.690;6.472;2022-08-19T00:41:52;17.20;99.90
15364;DHT22;7781;49.690;6.472;2022-08-19T00:44:23;17.10;99.90
15364;DHT22;7781;49.690;6.472;2022-08-19T00:46:55;17.10;99.90
15364;DHT22;7781;49.690;6.472;2022-08-19T00:49:29;16.90;99.90
15364;DHT22;7781;49.690;6.472;2022-08-19T00:52:00;16.90;99.90
15364;DHT22;7781;49.690;6.472;2022-08-19T00:54:29;16.90;99.90
15364;DHT22;7781;49.690;6.472;2022-08-19T00:57:00;16.80;99.90
15364;DHT22;7781;49.690;6.472;2022-08-19T00:59:29;16.80;99.90
15364;DHT22;7781;49.690;6.472;2022-08-19T01:02:18;16.70;99.90
15364;DHT22;7781;49.690;6.472;2022-08-19T01:04:48;16.70;99.90
15364;DHT22;7781;49.690;6.472;2022-08-19T01:07:16;16.70;99.90
15364;DHT22;7781;49.690;6.472;2022-08-19T01:09:46;16.70;99.90
15364;DHT22;7781;49.690;6.472;2022-08-19T01:12:14;16.70;99.90
15364;DHT22;7781;49.690;6.472;2022-08-19T01:14:43;16.60;99.90
15364;DHT22;7781;49.690;6.472;2022-08-19T01:17:12;16.60;99.90
15364;DHT22;7781;49.690;6.472;2022-08-19T01:19:43;16.60;99.90
15364;DHT22;7781;49.690;6.472;2022-08-19T01:22:25;16.60;99.90
15364;DHT22;7781;49.690;6.472;2022-08-19T01:24:59;16.50;99.90
15364;DHT22;7781;49.690;6.472;2022-08-19T01:27:37;16.50;99.90
15364;DHT22;7781;49.690;6.472;2022-08-19T01:30:13;16.40;99.90
15364;DHT22;7781;49.690;6.472;2022-08-19T01:32:41;16.40;99.90
15364;DHT22;7781;49.690;6.472;2022-08-19T01:35:11;16.40;99.90
15364;DHT22;7781;49.690;6.472;2022-08-19T01:37:46;16.30;99.90
15364;DHT22;7781;49.690;6.472;2022-08-19T01:40:14;16.20;99.90
15364;DHT22;7781;49.690;6.472;2022-08-19T01:42:43;16.20;99.90
15364;DHT22;7781;49.690;6.472;2022-08-19T01:45:11;16.20;99.90
15364;DHT22;7781;49.690;6.472;2022-08-19T01:47:39;16.10;99.90
15364;DHT22;7781;49.690;6.472;2022-08-19T01:50:10;16.00;99.90
15364;DHT22;7781;49.690;6.472;2022-08-19T01:52:40;15.90;99.90
15364;DHT22;7781;49.690;6.472;2022-08-19T01:55:12;15.90;99.90
15364;DHT22;7781;49.690;6.472;2022-08-19T01:57:44;15.90;99.90
15364;DHT22;7781;49.690;6.472;2022-08-19T02:00:16;15.90;99.90
15364;DHT22;7781;49.690;6.472;2022-08-19T02:02:44;15.90;99.90
15364;DHT22;7781;49.690;6.472;2022-08-19T02:05:12;15.90;99.90
15364;DHT22;7781;49.690;6.472;2022-08-19T02:07:41;15.90;99.90
15364;DHT22;7781;49.690;6.472;2022-08-19T02:10:14;15.90;99.90
15364;DHT22;7781;49.690;6.472;2022-08-19T02:12:43;15.90;99.90
15364;DHT22;7781;49.690;6.472;2022-08-19T02:15:11;15.80;99.90
15364;DHT22;7781;49.690;6.472;2022-08-19T02:17:39;15.80;99.90
15364;DHT22;7781;49.690;6.472;2022-08-19T02:20:09;15.80;99.90
15364;DHT22;7781;49.690;6.472;2022-08-19T02:22:37;15.80;99.90
15364;DHT22;7781;49.690;6.472;2022-08-19T02:25:10;15.80;99.90
15364;DHT22;7781;49.690;6.472;2022-08-19T02:27:39;15.70;99.90
15364;DHT22;7781;49.690;6.472;2022-08-19T02:30:10;15.70;99.90
15364;DHT22;7781;49.690;6.472;2022-08-19T02:32:40;15.70;99.90
15364;DHT22;7781;49.690;6.472;2022-08-19T02:35:12;15.70;99.90
15364;DHT22;7781;49.690;6.472;2022-08-19T02:37:41;15.70;99.90
15364;DHT22;7781;49.690;6.472;2022-08-19T02:40:28;15.70;99.90
15364;DHT22;7781;49.690;6.472;2022-08-19T02:43:00;15.70;99.90
15364;DHT22;7781;49.690;6.472;2022-08-19T02:45:32;15.70;99.90
15364;DHT22;7781;49.690;6.472;2022-08-19T02:48:00;15.60;99.90
15364;DHT22;7781;49.690;6.472;2022-08-19T02:50:37;15.60;99.90
15364;DHT22;7781;49.690;6.472;2022-08-19T02:53:05;15.70;99.90
15364;DHT22;7781;49.690;6.472;2022-08-19T02:55:35;15.70;99.90
15364;DHT22;7781;49.690;6.472;2022-08-19T02:58:12;15.80;99.90
15364;DHT22;7781;49.690;6.472;2022-08-19T03:00:44;15.80;99.90
15364;DHT22;7781;49.690;6.472;2022-08-19T03:03:13;15.90;99.90
15364;DHT22;7781;49.690;6.472;2022-08-19T03:05:41;15.80;99.90
15364;DHT22;7781;49.690;6.472;2022-08-19T03:08:23;15.70;99.90
15364;DHT22;7781;49.690;6.472;2022-08-19T03:10:53;15.80;99.90
15364;DHT22;7781;49.690;6.472;2022-08-19T03:13:21;15.80;99.90
15364;DHT22;7781;49.690;6.472;2022-08-19T03:15:50;15.80;99.90
15364;DHT22;7781;49.690;6.472;2022-08-19T03:18:18;15.80;99.90
15364;DHT22;7781;49.690;6.472;2022-08-19T03:20:52;15.80;99.90
15364;DHT22;7781;49.690;6.472;2022-08-19T03:23:22;15.80;99.90
15364;DHT22;7781;49.690;6.472;2022-08-19T03:25:53;15.70;99.90
15364;DHT22;7781;49.690;6.472;2022-08-19T03:28:41;15.70;99.90
15364;DHT22;7781;49.690;6.472;2022-08-19T03:31:24;15.70;99.90
15364;DHT22;7781;49.690;6.472;2022-08-19T03:34:12;15.60;99.90
15364;DHT22;7781;49.690;6.472;2022-08-19T03:36:41;15.60;99.90
15364;DHT22;7781;49.690;6.472;2022-08-19T03:39:10;15.60;99.90
15364;DHT22;7781;49.690;6.472;2022-08-19T03:41:41;15.50;99.90
15364;DHT22;7781;49.690;6.472;2022-08-19T03:44:14;15.40;99.90
15364;DHT22;7781;49.690;6.472;2022-08-19T03:46:46;15.50;99.90
15364;DHT22;7781;49.690;6.472;2022-08-19T03:49:15;15.50;99.90
15364;DHT22;7781;49.690;6.472;2022-08-19T03:51:45;15.60;99.90
15364;DHT22;7781;49.690;6.472;2022-08-19T03:54:16;15.50;99.90
15364;DHT22;7781;49.690;6.472;2022-08-19T03:56:50;15.50;99.90
15364;DHT22;7781;49.690;6.472;2022-08-19T03:59:20;15.50;99.90
15364;DHT22;7781;49.690;6.472;2022-08-19T04:01:49;15.40;99.90
15364;DHT22;7781;49.690;6.472;2022-08-19T04:04:17;15.40;99.90
15364;DHT22;7781;49.690;6.472;2022-08-19T04:06:45;15.40;99.90
15364;DHT22;7781;49.690;6.472;2022-08-19T04:09:15;15.30;99.90
15364;DHT22;7781;49.690;6.472;2022-08-19T04:11:46;15.30;99.90
15364;DHT22;7781;49.690;6.472;2022-08-19T04:14:18;15.30;99.90
15364;DHT22;7781;49.690;6.472;2022-08-19T04:16:48;15.30;99.90
15364;DHT22;7781;49.690;6.472;2022-08-19T04:19:17;15.30;99.90
15364;DHT22;7781;49.690;6.472;2022-08-19T04:21:48;15.30;99.90
15364;DHT22;7781;49.690;6.472;2022-08-19T04:24:17;15.30;99.90
15364;DHT22;7781;49.690;6.472;2022-08-19T04:26:45;15.30;99.90
15364;DHT22;7781;49.690;6.472;2022-08-19T04:29:19;15.20;99.90
15364;DHT22;7781;49.690;6.472;2022-08-19T04:31:49;15.20;99.90
15364;DHT22;7781;49.690;6.472;2022-08-19T04:34:19;15.10;99.90
15364;DHT22;7781;49.690;6.472;2022-08-19T04:36:50;15.20;99.90
15364;DHT22;7781;49.690;6.472;2022-08-19T04:39:21;15.20;99.90
15364;DHT22;7781;49.690;6.472;2022-08-19T04:41:49;15.20;99.90
15364;DHT22;7781;49.690;6.472;2022-08-19T04:44:36;15.20;99.90
15364;DHT22;7781;49.690;6.472;2022-08-19T04:47:12;15.10;99.90
15364;DHT22;7781;49.690;6.472;2022-08-19T04:49:40;15.20;99.90
15364;DHT22;7781;49.690;6.472;2022-08-19T04:52:08;15.20;99.90
15364;DHT22;7781;49.690;6.472;2022-08-19T04:54:36;15.20;99.90
15364;DHT22;7781;49.690;6.472;2022-08-19T04:57:07;15.20;99.90
15364;DHT22;7781;49.690;6.472;2022-08-19T04:59:38;15.20;99.90
15364;DHT22;7781;49.690;6.472;2022-08-19T05:02:07;15.20;99.90
15364;DHT22;7781;49.690;6.472;2022-08-19T05:04:36;15.20;99.90
15364;DHT22;7781;49.690;6.472;2022-08-19T05:07:07;15.20;99.90
15364;DHT22;7781;49.690;6.472;2022-08-19T05:09:35;15.30;99.90
15364;DHT22;7781;49.690;6.472;2022-08-19T05:12:23;15.30;99.90
15364;DHT22;7781;49.690;6.472;2022-08-19T05:14:58;15.40;99.90
15364;DHT22;7781;49.690;6.472;2022-08-19T05:17:26;15.40;99.90
15364;DHT22;7781;49.690;6.472;2022-08-19T05:20:03;15.40;99.90
15364;DHT22;7781;49.690;6.472;2022-08-19T05:22:50;15.50;99.90
15364;DHT22;7781;49.690;6.472;2022-08-19T05:25:20;15.60;99.90
15364;DHT22;7781;49.690;6.472;2022-08-19T05:27:48;15.70;99.90
15364;DHT22;7781;49.690;6.472;2022-08-19T05:30:18;15.70;99.90
15364;DHT22;7781;49.690;6.472;2022-08-19T05:33:06;15.80;99.90
15364;DHT22;7781;49.690;6.472;2022-08-19T05:35:36;15.90;99.90
15364;DHT22;7781;49.690;6.472;2022-08-19T05:38:04;16.00;99.90
15364;DHT22;7781;49.690;6.472;2022-08-19T05:40:34;16.10;99.90
15364;DHT22;7781;49.690;6.472;2022-08-19T05:43:04;16.20;99.90
15364;DHT22;7781;49.690;6.472;2022-08-19T05:45:38;16.30;99.90
15364;DHT22;7781;49.690;6.472;2022-08-19T05:48:06;16.40;99.90
15364;DHT22;7781;49.690;6.472;2022-08-19T05:50:36;16.50;99.90
15364;DHT22;7781;49.690;6.472;2022-08-19T05:53:04;16.60;99.90
15364;DHT22;7781;49.690;6.472;2022-08-19T05:55:32;16.70;99.90
15364;DHT22;7781;49.690;6.472;2022-08-19T05:58:00;16.80;99.90
15364;DHT22;7781;49.690;6.472;2022-08-19T06:00:29;16.90;99.90
15364;DHT22;7781;49.690;6.472;2022-08-19T06:02:59;17.00;99.90
15364;DHT22;7781;49.690;6.472;2022-08-19T06:05:39;17.00;99.90
15364;DHT22;7781;49.690;6.472;2022-08-19T06:08:19;17.10;99.90
15364;DHT22;7781;49.690;6.472;2022-08-19T06:11:12;17.20;99.90
15364;DHT22;7781;49.690;6.472;2022-08-19T06:13:41;17.20;99.90
15364;DHT22;7781;49.690;6.472;2022-08-19T06:16:09;17.30;99.90
15364;DHT22;7781;49.690;6.472;2022-08-19T06:18:38;17.30;99.90
15364;DHT22;7781;49.690;6.472;2022-08-19T06:21:06;17.30;99.90
15364;DHT22;7781;49.690;6.472;2022-08-19T06:23:34;17.40;99.90
15364;DHT22;7781;49.690;6.472;2022-08-19T06:26:03;17.40;99.90
15364;DHT22;7781;49.690;6.472;2022-08-19T06:28:31;17.50;99.90
15364;DHT22;7781;49.690;6.472;2022-08-19T06:31:06;17.50;99.90
15364;DHT22;7781;49.690;6.472;2022-08-19T06:33:34;17.70;99.90
15364;DHT22;7781;49.690;6.472;2022-08-19T06:36:04;17.80;99.90
15364;DHT22;7781;49.690;6.472;2022-08-19T06:38:32;17.90;99.90
15364;DHT22;7781;49.690;6.472;2022-08-19T06:41:02;17.90;99.90
15364;DHT22;7781;49.690;6.472;2022-08-19T06:43:34;18.00;99.90
15364;DHT22;7781;49.690;6.472;2022-08-19T06:46:12;18.00;99.90
15364;DHT22;7781;49.690;6.472;2022-08-19T06:48:42;18.10;99.90
15364;DHT22;7781;49.690;6.472;2022-08-19T06:51:14;18.20;99.90
15364;DHT22;7781;49.690;6.472;2022-08-19T06:53:45;18.20;99.90
15364;DHT22;7781;49.690;6.472;2022-08-19T06:56:17;18.40;99.90
15364;DHT22;7781;49.690;6.472;2022-08-19T06:58:45;18.50;99.90
15364;DHT22;7781;49.690;6.472;2022-08-19T07:01:13;18.60;99.90
15364;DHT22;7781;49.690;6.472;2022-08-19T07:03:41;18.70;99.90
15364;DHT22;7781;49.690;6.472;2022-08-19T07:06:13;18.80;99.90
15364;DHT22;7781;49.690;6.472;2022-08-19T07:09:04;18.90;99.90
15364;DHT22;7781;49.690;6.472;2022-08-19T07:11:33;19.00;99.90
15364;DHT22;7781;49.690;6.472;2022-08-19T07:14:02;19.10;99.90
15364;DHT22;7781;49.690;6.472;2022-08-19T07:16:30;19.20;99.90
15364;DHT22;7781;49.690;6.472;2022-08-19T07:18:58;19.30;99.90
15364;DHT22;7781;49.690;6.472;2022-08-19T07:21:44;19.40;99.90
15364;DHT22;7781;49.690;6.472;2022-08-19T07:24:13;19.50;99.90
15364;DHT22;7781;49.690;6.472;2022-08-19T07:26:42;19.60;99.90
15364;DHT22;7781;49.690;6.472;2022-08-19T07:29:12;19.70;99.90
15364;DHT22;7781;49.690;6.472;2022-08-19T07:31:40;19.80;99.90
15364;DHT22;7781;49.690;6.472;2022-08-19T07:34:11;20.00;99.90
15364;DHT22;7781;49.690;6.472;2022-08-19T07:36:41;20.00;99.90
15364;DHT22;7781;49.690;6.472;2022-08-19T07:39:13;20.10;99.90
15364;DHT22;7781;49.690;6.472;2022-08-19T07:41:42;20.30;99.90
15364;DHT22;7781;49.690;6.472;2022-08-19T07:44:11;20.40;99.90
15364;DHT22;7781;49.690;6.472;2022-08-19T07:46:42;20.50;99.90
15364;DHT22;7781;49.690;6.472;2022-08-19T07:49:13;20.60;99.90
15364;DHT22;7781;49.690;6.472;2022-08-19T07:51:44;20.70;99.90
15364;DHT22;7781;49.690;6.472;2022-08-19T07:54:15;20.80;99.90
15364;DHT22;7781;49.690;6.472;2022-08-19T07:56:43;21.00;99.90
15364;DHT22;7781;49.690;6.472;2022-08-19T07:59:11;21.20;99.90
15364;DHT22;7781;49.690;6.472;2022-08-19T08:01:39;21.30;99.90
15364;DHT22;7781;49.690;6.472;2022-08-19T08:04:08;21.50;99.90
15364;DHT22;7781;49.690;6.472;2022-08-19T08:06:54;21.60;99.90
15364;DHT22;7781;49.690;6.472;2022-08-19T08:09:42;21.80;99.90
15364;DHT22;7781;49.690;6.472;2022-08-19T08:12:18;21.80;99.90
15364;DHT22;7781;49.690;6.472;2022-08-19T08:15:02;21.90;98.20
15364;DHT22;7781;49.690;6.472;2022-08-19T08:17:34;22.10;52.70
15364;DHT22;7781;49.690;6.472;2022-08-19T08:20:18;22.10;49.80
15364;DHT22;7781;49.690;6.472;2022-08-19T08:22:47;22.30;45.20
15364;DHT22;7781;49.690;6.472;2022-08-19T08:25:35;22.40;40.90
15364;DHT22;7781;49.690;6.472;2022-08-19T08:28:04;22.60;58.50
15364;DHT22;7781;49.690;6.472;2022-08-19T08:30:37;22.70;34.60
15364;DHT22;7781;49.690;6.472;2022-08-19T08:33:11;22.90;34.20
15364;DHT22;7781;49.690;6.472;2022-08-19T08:35:40;23.10;35.50
15364;DHT22;7781;49.690;6.472;2022-08-19T08:38:09;23.20;26.10
15364;DHT22;7781;49.690;6.472;2022-08-19T08:40:45;23.40;23.10
15364;DHT22;7781;49.690;6.472;2022-08-19T08:43:22;23.60;32.00
15364;DHT22;7781;49.690;6.472;2022-08-19T08:45:55;24.00;32.40
15364;DHT22;7781;49.690;6.472;2022-08-19T08:48:32;24.10;1.00
15364;DHT22;7781;49.690;6.472;2022-08-19T08:51:05;24.30;83.30
15364;DHT22;7781;49.690;6.472;2022-08-19T08:53:36;24.50;99.90
15364;DHT22;7781;49.690;6.472;2022-08-19T08:56:09;24.80;99.00
15364;DHT22;7781;49.690;6.472;2022-08-19T08:58:49;25.00;1.00
15364;DHT22;7781;49.690;6.472;2022-08-19T09:01:20;24.80;99.90
15364;DHT22;7781;49.690;6.472;2022-08-19T09:03:49;25.00;99.90
15364;DHT22;7781;49.690;6.472;2022-08-19T09:06:25;25.20;1.00
15364;DHT22;7781;49.690;6.472;2022-08-19T09:09:01;25.40;28.30
15364;DHT22;7781;49.690;6.472;2022-08-19T09:12:03;25.60;99.90
15364;DHT22;7781;49.690;6.472;2022-08-19T09:14:42;25.60;99.90
15364;DHT22;7781;49.690;6.472;2022-08-19T09:17:18;25.50;1.00
15364;DHT22;7781;49.690;6.472;2022-08-19T09:19:53;25.30;1.00
15364;DHT22;7781;49.690;6.472;2022-08-19T09:22:23;25.20;99.90
15364;DHT22;7781;49.690;6.472;2022-08-19T09:24:54;25.20;99.90
15364;DHT22;7781;49.690;6.472;2022-08-19T09:27:25;25.40;99.90
15364;DHT22;7781;49.690;6.472;2022-08-19T09:30:22;25.60;99.90
15364;DHT22;7781;49.690;6.472;2022-08-19T09:32:51;25.60;99.90
15364;DHT22;7781;49.690;6.472;2022-08-19T09:35:21;25.50;99.90
15364;DHT22;7781;49.690;6.472;2022-08-19T09:37:51;25.50;99.90
15364;DHT22;7781;49.690;6.472;2022-08-19T09:40:26;25.20;99.90
15364;DHT22;7781;49.690;6.472;2022-08-19T09:42:58;25.20;99.90
15364;DHT22;7781;49.690;6.472;2022-08-19T09:45:39;25.30;99.90
15364;DHT22;7781;49.690;6.472;2022-08-19T09:48:08;25.40;99.90
15364;DHT22;7781;49.690;6.472;2022-08-19T09:50:44;25.60;99.90
15364;DHT22;7781;49.690;6.472;2022-08-19T09:53:18;25.80;99.90
15364;DHT22;7781;49.690;6.472;2022-08-19T09:55:51;26.10;99.90
15364;DHT22;7781;49.690;6.472;2022-08-19T09:58:21;26.40;58.30
15364;DHT22;7781;49.690;6.472;2022-08-19T10:00:53;26.50;1.00
15364;DHT22;7781;49.690;6.472;2022-08-19T10:03:22;26.40;1.00
15364;DHT22;7781;49.690;6.472;2022-08-19T10:05:57;26.00;1.00
15364;DHT22;7781;49.690;6.472;2022-08-19T10:08:28;25.80;1.00
15364;DHT22;7781;49.690;6.472;2022-08-19T10:10:57;25.50;1.00
15364;DHT22;7781;49.690;6.472;2022-08-19T10:13:48;25.30;1.00
15364;DHT22;7781;49.690;6.472;2022-08-19T10:16:19;25.20;1.00
15364;DHT22;7781;49.690;6.472;2022-08-19T10:18:55;25.10;1.00
15364;DHT22;7781;49.690;6.472;2022-08-19T10:21:26;25.20;1.00
15364;DHT22;7781;49.690;6.472;2022-08-19T10:23:59;25.50;1.00
15364;DHT22;7781;49.690;6.472;2022-08-19T10:26:33;25.80;1.00
15364;DHT22;7781;49.690;6.472;2022-08-19T10:29:04;26.10;1.00
15364;DHT22;7781;49.690;6.472;2022-08-19T10:31:35;26.50;99.90
15364;DHT22;7781;49.690;6.472;2022-08-19T10:34:23;26.70;99.90
15364;DHT22;7781;49.690;6.472;2022-08-19T10:36:54;26.70;99.90
15364;DHT22;7781;49.690;6.472;2022-08-19T10:39:28;26.60;99.90
15364;DHT22;7781;49.690;6.472;2022-08-19T10:42:08;26.40;99.90
15364;DHT22;7781;49.690;6.472;2022-08-19T10:44:38;26.30;99.90
15364;DHT22;7781;49.690;6.472;2022-08-19T10:47:07;26.50;99.90
15364;DHT22;7781;49.690;6.472;2022-08-19T10:49:51;26.80;99.90
15364;DHT22;7781;49.690;6.472;2022-08-19T10:52:38;27.10;99.90
15364;DHT22;7781;49.690;6.472;2022-08-19T10:55:17;27.20;99.90
15364;DHT22;7781;49.690;6.472;2022-08-19T10:58:03;27.00;1.00
15364;DHT22;7781;49.690;6.472;2022-08-19T11:00:37;27.00;1.00
15364;DHT22;7781;49.690;6.472;2022-08-19T11:03:06;27.00;14.60
15364;DHT22;7781;49.690;6.472;2022-08-19T11:05:35;27.20;99.90
15364;DHT22;7781;49.690;6.472;2022-08-19T11:08:06;27.40;1.00
15364;DHT22;7781;49.690;6.472;2022-08-19T11:10:51;27.50;99.90
15364;DHT22;7781;49.690;6.472;2022-08-19T11:13:26;27.50;1.00
15364;DHT22;7781;49.690;6.472;2022-08-19T11:16:00;27.20;68.00
15364;DHT22;7781;49.690;6.472;2022-08-19T11:18:35;27.00;1.00
15364;DHT22;7781;49.690;6.472;2022-08-19T11:21:08;26.80;99.90
15364;DHT22;7781;49.690;6.472;2022-08-19T11:23:37;26.80;99.90
15364;DHT22;7781;49.690;6.472;2022-08-19T11:26:06;26.80;99.90
15364;DHT22;7781;49.690;6.472;2022-08-19T11:28:34;27.00;1.00
15364;DHT22;7781;49.690;6.472;2022-08-19T11:31:04;27.40;9.90
15364;DHT22;7781;49.690;6.472;2022-08-19T11:33:32;27.40;16.80
15364;DHT22;7781;49.690;6.472;2022-08-19T11:36:01;27.40;1.00
15364;DHT22;7781;49.690;6.472;2022-08-19T11:38:29;27.40;99.90
15364;DHT22;7781;49.690;6.472;2022-08-19T11:40:58;27.50;1.00
15364;DHT22;7781;49.690;6.472;2022-08-19T11:43:27;27.60;1.00
15364;DHT22;7781;49.690;6.472;2022-08-19T11:46:05;27.60;1.00
15364;DHT22;7781;49.690;6.472;2022-08-19T11:48:34;27.80;1.00
15364;DHT22;7781;49.690;6.472;2022-08-19T11:51:05;28.30;99.90
15364;DHT22;7781;49.690;6.472;2022-08-19T11:53:34;28.20;1.00
15364;DHT22;7781;49.690;6.472;2022-08-19T11:56:04;28.40;1.00
15364;DHT22;7781;49.690;6.472;2022-08-19T11:58:32;28.50;1.00
15364;DHT22;7781;49.690;6.472;2022-08-19T12:01:01;28.40;1.00
15364;DHT22;7781;49.690;6.472;2022-08-19T12:03:30;28.20;1.00
15364;DHT22;7781;49.690;6.472;2022-08-19T12:06:02;28.00;1.00
15364;DHT22;7781;49.690;6.472;2022-08-19T12:08:30;27.80;1.00
15364;DHT22;7781;49.690;6.472;2022-08-19T12:10:59;28.00;1.00
15364;DHT22;7781;49.690;6.472;2022-08-19T12:13:28;28.20;1.00
15364;DHT22;7781;49.690;6.472;2022-08-19T12:15:57;28.70;1.00
15364;DHT22;7781;49.690;6.472;2022-08-19T12:18:26;29.10;1.00
15364;DHT22;7781;49.690;6.472;2022-08-19T12:20:55;29.00;1.00
15364;DHT22;7781;49.690;6.472;2022-08-19T12:23:23;29.30;1.00
15364;DHT22;7781;49.690;6.472;2022-08-19T12:25:52;29.40;1.00
15364;DHT22;7781;49.690;6.472;2022-08-19T12:28:23;29.40;1.00
15364;DHT22;7781;49.690;6.472;2022-08-19T12:30:51;29.10;1.00
15364;DHT22;7781;49.690;6.472;2022-08-19T12:33:20;29.00;1.00
15364;DHT22;7781;49.690;6.472;2022-08-19T12:35:51;29.20;1.00
15364;DHT22;7781;49.690;6.472;2022-08-19T12:38:21;29.50;1.00
15364;DHT22;7781;49.690;6.472;2022-08-19T12:40:51;29.60;1.00
15364;DHT22;7781;49.690;6.472;2022-08-19T12:43:25;29.60;1.00
15364;DHT22;7781;49.690;6.472;2022-08-19T12:45:53;29.40;1.00
15364;DHT22;7781;49.690;6.472;2022-08-19T12:48:22;29.30;1.00
15364;DHT22;7781;49.690;6.472;2022-08-19T12:51:05;29.10;1.00
15364;DHT22;7781;49.690;6.472;2022-08-19T12:53:36;29.70;1.00
15364;DHT22;7781;49.690;6.472;2022-08-19T12:56:06;30.30;1.00
15364;DHT22;7781;49.690;6.472;2022-08-19T12:58:38;30.40;1.00
15364;DHT22;7781;49.690;6.472;2022-08-19T13:01:17;30.60;1.00
15364;DHT22;7781;49.690;6.472;2022-08-19T13:03:48;30.30;1.00
15364;DHT22;7781;49.690;6.472;2022-08-19T13:06:17;30.10;1.00
15364;DHT22;7781;49.690;6.472;2022-08-19T13:08:47;30.10;1.00
15364;DHT22;7781;49.690;6.472;2022-08-19T13:11:17;30.10;1.00
15364;DHT22;7781;49.690;6.472;2022-08-19T13:13:48;30.20;1.00
15364;DHT22;7781;49.690;6.472;2022-08-19T13:16:18;30.30;1.00
15364;DHT22;7781;49.690;6.472;2022-08-19T13:18:49;30.40;1.00
15364;DHT22;7781;49.690;6.472;2022-08-19T13:21:19;30.80;1.00
15364;DHT22;7781;49.690;6.472;2022-08-19T13:23:50;31.30;1.00
15364;DHT22;7781;49.690;6.472;2022-08-19T13:26:19;31.90;1.00
15364;DHT22;7781;49.690;6.472;2022-08-19T13:28:47;32.20;1.00
15364;DHT22;7781;49.690;6.472;2022-08-19T13:31:34;32.60;1.00
15364;DHT22;7781;49.690;6.472;2022-08-19T13:34:28;32.90;1.00
15364;DHT22;7781;49.690;6.472;2022-08-19T13:36:57;32.90;1.00
15364;DHT22;7781;49.690;6.472;2022-08-19T13:39:27;32.20;1.00
15364;DHT22;7781;49.690;6.472;2022-08-19T13:41:55;32.00;1.00
15364;DHT22;7781;49.690;6.472;2022-08-19T13:44:24;31.60;1.00
15364;DHT22;7781;49.690;6.472;2022-08-19T13:46:53;32.10;1.00
15364;DHT22;7781;49.690;6.472;2022-08-19T13:49:21;32.70;1.00
15364;DHT22;7781;49.690;6.472;2022-08-19T13:51:50;32.90;1.00
15364;DHT22;7781;49.690;6.472;2022-08-19T13:54:18;32.60;1.00
15364;DHT22;7781;49.690;6.472;2022-08-19T13:56:47;32.30;1.00
15364;DHT22;7781;49.690;6.472;2022-08-19T13:59:15;32.00;1.00
15364;DHT22;7781;49.690;6.472;2022-08-19T14:01:44;31.70;1.00
15364;DHT22;7781;49.690;6.472;2022-08-19T14:04:12;31.70;1.00
15364;DHT22;7781;49.690;6.472;2022-08-19T14:06:40;32.00;1.00
15364;DHT22;7781;49.690;6.472;2022-08-19T14:09:08;31.80;1.00
15364;DHT22;7781;49.690;6.472;2022-08-19T14:11:36;31.30;1.00
15364;DHT22;7781;49.690;6.472;2022-08-19T14:14:06;31.30;1.00
15364;DHT22;7781;49.690;6.472;2022-08-19T14:16:37;31.30;1.00
15364;DHT22;7781;49.690;6.472;2022-08-19T14:19:05;31.40;1.00
15364;DHT22;7781;49.690;6.472;2022-08-19T14:21:34;31.40;1.00
15364;DHT22;7781;49.690;6.472;2022-08-19T14:24:07;31.10;1.00
15364;DHT22;7781;49.690;6.472;2022-08-19T14:26:36;30.70;1.00
15364;DHT22;7781;49.690;6.472;2022-08-19T14:29:06;30.50;1.00
15364;DHT22;7781;49.690;6.472;2022-08-19T14:31:34;30.40;1.00
15364;DHT22;7781;49.690;6.472;2022-08-19T14:34:03;29.80;1.00
15364;DHT22;7781;49.690;6.472;2022-08-19T14:36:31;29.80;1.00
15364;DHT22;7781;49.690;6.472;2022-08-19T14:39:05;29.80;1.00
15364;DHT22;7781;49.690;6.472;2022-08-19T14:41:33;29.60;1.00
15364;DHT22;7781;49.690;6.472;2022-08-19T14:44:01;29.30;1.00
15364;DHT22;7781;49.690;6.472;2022-08-19T14:46:30;29.00;1.00
15364;DHT22;7781;49.690;6.472;2022-08-19T14:48:59;29.00;1.00
15364;DHT22;7781;49.690;6.472;2022-08-19T14:51:35;29.00;1.00
15364;DHT22;7781;49.690;6.472;2022-08-19T14:54:03;29.10;1.00
15364;DHT22;7781;49.690;6.472;2022-08-19T14:56:32;28.60;1.00
15364;DHT22;7781;49.690;6.472;2022-08-19T14:59:00;28.30;1.00
15364;DHT22;7781;49.690;6.472;2022-08-19T15:01:29;28.10;1.00
15364;DHT22;7781;49.690;6.472;2022-08-19T15:03:57;28.10;1.00
15364;DHT22;7781;49.690;6.472;2022-08-19T15:06:27;27.80;1.00
15364;DHT22;7781;49.690;6.472;2022-08-19T15:08:55;27.50;1.00
15364;DHT22;7781;49.690;6.472;2022-08-19T15:11:30;27.20;1.00
15364;DHT22;7781;49.690;6.472;2022-08-19T15:13:59;27.20;1.00
15364;DHT22;7781;49.690;6.472;2022-08-19T15:16:29;27.20;1.00
15364;DHT22;7781;49.690;6.472;2022-08-19T15:18:58;27.20;1.00
15364;DHT22;7781;49.690;6.472;2022-08-19T15:21:28;27.20;1.00
15364;DHT22;7781;49.690;6.472;2022-08-19T15:23:58;27.30;1.00
15364;DHT22;7781;49.690;6.472;2022-08-19T15:26:27;27.20;1.00
15364;DHT22;7781;49.690;6.472;2022-08-19T15:28:59;27.30;1.00
15364;DHT22;7781;49.690;6.472;2022-08-19T15:31:29;27.50;1.00
15364;DHT22;7781;49.690;6.472;2022-08-19T15:33:58;27.40;1.00
15364;DHT22;7781;49.690;6.472;2022-08-19T15:36:26;27.60;1.00
15364;DHT22;7781;49.690;6.472;2022-08-19T15:38:55;28.00;1.00
15364;DHT22;7781;49.690;6.472;2022-08-19T15:41:26;28.40;1.00
15364;DHT22;7781;49.690;6.472;2022-08-19T15:43:58;28.80;1.00
15364;DHT22;7781;49.690;6.472;2022-08-19T15:46:28;28.80;1.00
15364;DHT22;7781;49.690;6.472;2022-08-19T15:48:58;28.80;1.00
15364;DHT22;7781;49.690;6.472;2022-08-19T15:51:28;28.70;1.00
15364;DHT22;7781;49.690;6.472;2022-08-19T15:53:57;28.40;1.00
15364;DHT22;7781;49.690;6.472;2022-08-19T15:56:27;28.30;1.00
15364;DHT22;7781;49.690;6.472;2022-08-19T15:59:24;28.20;1.00
15364;DHT22;7781;49.690;6.472;2022-08-19T16:02:14;27.90;1.00
15364;DHT22;7781;49.690;6.472;2022-08-19T16:05:02;27.70;1.00
15364;DHT22;7781;49.690;6.472;2022-08-19T16:07:47;27.90;1.00
15364;DHT22;7781;49.690;6.472;2022-08-19T16:10:17;28.00;1.00
15364;DHT22;7781;49.690;6.472;2022-08-19T16:12:54;27.80;1.00
15364;DHT22;7781;49.690;6.472;2022-08-19T16:15:23;27.60;1.00
15364;DHT22;7781;49.690;6.472;2022-08-19T16:17:51;27.40;27.90
15364;DHT22;7781;49.690;6.472;2022-08-19T16:20:25;27.40;99.90
15364;DHT22;7781;49.690;6.472;2022-08-19T16:22:54;27.20;99.90